createdAt,value
2022-09-07T00:00:38.324Z,16.91
2022-09-07T00:03:07.662Z,16.93
2022-09-07T00:05:43.150Z,16.91
2022-09-07T00:08:10.218Z,16.94
2022-09-07T00:10:37.672Z,17.06
2022-09-07T00:13:05.713Z,16.96
2022-09-07T00:15:32.530Z,16.97
2022-09-07T00:18:05.036Z,17.02
2022-09-07T00:20:31.532Z,16.97
2022-09-07T00:22:59.540Z,16.98
2022-09-07T00:25:26.375Z,17.00
2022-09-07T00:27:53.354Z,17.05
2022-09-07T00:30:19.816Z,17.04
2022-09-07T00:32:46.325Z,17.03
2022-09-07T00:35:12.799Z,17.01
2022-09-07T00:37:39.262Z,17.08
2022-09-07T00:40:06.533Z,17.05
2022-09-07T00:42:33.032Z,17.06
2022-09-07T00:45:14.727Z,17.06
2022-09-07T00:48:02.323Z,17.06
2022-09-07T00:50:39.648Z,17.11
2022-09-07T00:53:19.303Z,17.12
2022-09-07T00:55:48.765Z,17.14
2022-09-07T00:58:16.471Z,17.20
2022-09-07T01:00:45.503Z,17.18
2022-09-07T01:03:14.333Z,17.32
2022-09-07T01:05:50.801Z,17.28
2022-09-07T01:08:17.658Z,17.25
2022-09-07T01:10:44.245Z,17.23
2022-09-07T01:13:10.717Z,17.23
2022-09-07T01:16:05.019Z,17.27
2022-09-07T01:18:43.594Z,17.31
2022-09-07T01:21:41.721Z,17.33
2022-09-07T01:24:17.960Z,17.36
2022-09-07T01:27:24.402Z,17.39
2022-09-07T01:30:13.610Z,17.39
2022-09-07T01:33:16.944Z,17.38
2022-09-07T01:36:05.070Z,17.46
2022-09-07T01:38:46.589Z,17.55
2022-09-07T01:41:39.039Z,17.56
2022-09-07T01:44:11.610Z,17.48
2022-09-07T01:46:52.369Z,17.52
2022-09-07T01:49:25.355Z,17.58
2022-09-07T01:51:58.716Z,17.46
2022-09-07T01:54:35.018Z,17.45
2022-09-07T01:57:06.361Z,17.38
2022-09-07T01:59:39.406Z,17.33
2022-09-07T02:02:13.422Z,17.36
2022-09-07T02:04:46.908Z,17.41
2022-09-07T02:07:27.938Z,17.45
2022-09-07T02:10:04.045Z,17.40
2022-09-07T02:12:40.588Z,17.46
2022-09-07T02:15:14.311Z,17.45
2022-09-07T02:17:51.394Z,17.44
2022-09-07T02:20:27.231Z,17.47
2022-09-07T02:23:02.388Z,17.41
2022-09-07T02:25:35.095Z,17.46
2022-09-07T02:28:09.854Z,17.45
2022-09-07T02:30:37.305Z,17.48
2022-09-07T02:33:04.285Z,17.37
2022-09-07T02:35:31.186Z,17.35
2022-09-07T02:38:04.353Z,17.39
2022-09-07T02:40:31.827Z,17.36
2022-09-07T02:43:09.620Z,17.33
2022-09-07T02:46:17.739Z,17.34
2022-09-07T02:49:14.875Z,17.38
2022-09-07T02:51:47.317Z,17.39
2022-09-07T02:54:30.000Z,17.30
2022-09-07T02:57:34.455Z,17.26
2022-09-07T03:00:08.429Z,17.26
2022-09-07T03:02:53.479Z,17.30
2022-09-07T03:05:39.672Z,17.25
2022-09-07T03:08:12.019Z,17.23
2022-09-07T03:10:41.831Z,17.23
2022-09-07T03:13:08.538Z,17.23
2022-09-07T03:15:35.104Z,17.20
2022-09-07T03:18:03.363Z,17.24
2022-09-07T03:20:29.864Z,17.26
2022-09-07T03:22:56.543Z,17.24
2022-09-07T03:25:23.211Z,17.35
2022-09-07T03:27:49.766Z,17.42
2022-09-07T03:30:16.344Z,17.21
2022-09-07T03:32:42.903Z,17.28
2022-09-07T03:35:09.876Z,17.23
2022-09-07T03:37:37.300Z,17.28
2022-09-07T03:40:06.690Z,17.39
2022-09-07T03:42:33.414Z,17.36
2022-09-07T03:45:00.018Z,17.32
2022-09-07T03:47:28.306Z,17.25
2022-09-07T03:49:55.037Z,17.22
2022-09-07T03:52:21.561Z,17.23
2022-09-07T03:54:48.117Z,17.29
2022-09-07T03:57:14.646Z,17.31
2022-09-07T03:59:41.171Z,17.34
2022-09-07T04:02:07.773Z,17.36
2022-09-07T04:04:34.345Z,17.32
2022-09-07T04:07:01.081Z,17.36
2022-09-07T04:09:28.479Z,17.39
2022-09-07T04:11:55.260Z,17.37
2022-09-07T04:14:22.004Z,17.40
2022-09-07T04:16:48.884Z,17.39
2022-09-07T04:19:15.423Z,17.37
2022-09-07T04:21:46.686Z,17.39
2022-09-07T04:24:17.474Z,17.44
2022-09-07T04:26:44.801Z,17.43
2022-09-07T04:29:12.378Z,17.28
2022-09-07T04:31:39.653Z,17.25
2022-09-07T04:34:07.440Z,17.27
2022-09-07T04:36:34.471Z,17.29
2022-09-07T04:39:03.250Z,17.25
2022-09-07T04:41:31.379Z,17.22
2022-09-07T04:44:00.887Z,17.22
2022-09-07T04:46:30.326Z,17.27
2022-09-07T04:48:59.311Z,17.28
2022-09-07T04:51:29.006Z,17.34
2022-09-07T04:53:59.781Z,17.33
2022-09-07T04:56:27.078Z,17.37
2022-09-07T04:58:54.435Z,17.43
2022-09-07T05:01:24.645Z,17.46
2022-09-07T05:03:51.535Z,17.50
2022-09-07T05:06:19.446Z,17.52
2022-09-07T05:08:48.771Z,17.54
2022-09-07T05:11:16.278Z,17.55
2022-09-07T05:13:42.935Z,17.53
2022-09-07T05:16:21.502Z,17.47
2022-09-07T05:18:59.776Z,17.60
2022-09-07T05:21:28.515Z,17.50
2022-09-07T05:24:01.151Z,17.25
2022-09-07T05:26:30.707Z,17.19
2022-09-07T05:31:50.885Z,17.02
2022-09-07T05:34:33.260Z,16.84
2022-09-07T05:37:01.108Z,16.78
2022-09-07T05:39:28.423Z,16.83
2022-09-07T05:41:55.722Z,16.81
2022-09-07T05:47:09.970Z,16.58
2022-09-07T05:49:36.494Z,16.59
2022-09-07T05:52:03.197Z,16.53
2022-09-07T05:54:29.925Z,16.58
2022-09-07T05:56:56.763Z,16.66
2022-09-07T05:59:23.617Z,16.77
2022-09-07T06:01:50.300Z,16.71
2022-09-07T06:04:16.828Z,16.72
2022-09-07T06:06:47.830Z,16.80
2022-09-07T06:09:29.834Z,16.83
2022-09-07T06:11:57.794Z,16.87
2022-09-07T06:14:25.030Z,16.95
2022-09-07T06:16:51.568Z,17.08
2022-09-07T06:19:18.058Z,17.07
2022-09-07T06:21:44.457Z,17.08
2022-09-07T06:24:11.084Z,17.11
2022-09-07T06:26:37.589Z,17.21
2022-09-07T06:29:04.018Z,17.35
2022-09-07T06:31:30.931Z,17.45
2022-09-07T06:33:58.231Z,17.52
2022-09-07T06:36:29.884Z,17.59
2022-09-07T06:39:01.389Z,17.64
2022-09-07T06:44:19.997Z,17.72
2022-09-07T06:49:28.662Z,17.85
2022-09-07T06:51:55.750Z,17.80
2022-09-07T06:57:09.391Z,17.90
2022-09-07T06:59:36.617Z,17.95
2022-09-07T07:02:04.147Z,18.05
2022-09-07T07:04:32.399Z,17.99
2022-09-07T07:07:01.105Z,17.85
2022-09-07T07:09:27.735Z,17.98
2022-09-07T07:11:55.087Z,18.13
2022-09-07T07:14:21.683Z,18.21
2022-09-07T07:16:48.181Z,18.34
2022-09-07T07:19:14.794Z,18.45
2022-09-07T07:22:07.820Z,18.49
2022-09-07T07:24:29.772Z,18.61
2022-09-07T07:26:56.707Z,18.64
2022-09-07T07:29:25.103Z,18.80
2022-09-07T07:32:02.232Z,18.94
2022-09-07T07:34:29.076Z,19.05
2022-09-07T07:36:55.884Z,19.20
2022-09-07T07:42:08.993Z,19.38
2022-09-07T07:44:35.393Z,19.50
2022-09-07T07:47:02.636Z,19.59
2022-09-07T07:49:29.074Z,19.68
2022-09-07T07:54:43.154Z,19.87
2022-09-07T07:57:09.669Z,19.88
2022-09-07T07:59:36.108Z,19.92
2022-09-07T08:02:08.706Z,19.95
2022-09-07T08:04:35.824Z,20.06
2022-09-07T08:07:09.599Z,20.07
2022-09-07T08:09:41.728Z,20.19
2022-09-07T08:12:11.082Z,20.26
2022-09-07T08:14:43.149Z,20.42
2022-09-07T08:17:11.151Z,20.57
2022-09-07T08:19:38.202Z,20.68
2022-09-07T08:22:05.302Z,20.78
2022-09-07T08:24:32.103Z,20.78
2022-09-07T08:26:59.192Z,20.80
2022-09-07T08:29:27.143Z,20.81
2022-09-07T08:31:54.143Z,20.92
2022-09-07T08:34:21.786Z,20.99
2022-09-07T08:36:48.261Z,21.14
2022-09-07T08:39:14.754Z,21.23
2022-09-07T08:42:08.698Z,21.30
2022-09-07T08:44:41.420Z,21.31
2022-09-07T08:47:32.036Z,21.39
2022-09-07T08:50:09.756Z,21.31
2022-09-07T08:52:50.711Z,21.37
2022-09-07T08:55:38.885Z,21.42
2022-09-07T08:58:32.252Z,21.52
2022-09-07T09:06:59.415Z,21.91
2022-09-07T09:09:41.624Z,22.12
2022-09-07T09:12:26.817Z,22.19
2022-09-07T09:15:31.067Z,22.15
2022-09-07T09:18:19.401Z,22.22
2022-09-07T09:20:52.242Z,22.32
2022-09-07T09:23:20.262Z,22.33
2022-09-07T09:25:52.912Z,22.33
2022-09-07T09:28:19.514Z,22.31
2022-09-07T09:30:47.843Z,22.33
2022-09-07T09:33:14.298Z,22.42
2022-09-07T09:35:41.335Z,22.63
2022-09-07T09:38:39.483Z,22.66
2022-09-07T09:41:12.020Z,22.81
2022-09-07T09:43:45.793Z,23.03
2022-09-07T09:46:20.787Z,23.00
2022-09-07T09:48:55.977Z,22.92
2022-09-07T09:54:24.928Z,23.02
2022-09-07T09:56:52.141Z,23.11
2022-09-07T10:05:33.219Z,23.79
2022-09-07T10:08:00.072Z,23.82
2022-09-07T10:10:28.831Z,24.23
2022-09-07T10:12:56.369Z,24.40
2022-09-07T10:15:39.723Z,24.58
2022-09-07T10:18:16.198Z,24.39
2022-09-07T10:20:42.748Z,24.35
2022-09-07T10:23:21.221Z,24.14
2022-09-07T10:25:47.881Z,23.90
2022-09-07T10:28:22.618Z,23.88
2022-09-07T10:31:31.921Z,24.22
2022-09-07T10:34:32.185Z,24.68
2022-09-07T10:37:08.409Z,24.96
2022-09-07T10:39:39.250Z,25.15
2022-09-07T10:42:15.917Z,25.18
2022-09-07T10:45:30.217Z,25.05
2022-09-07T10:48:27.758Z,24.95
2022-09-07T10:51:05.025Z,24.78
2022-09-07T10:53:46.327Z,24.74
2022-09-07T10:56:21.554Z,24.78
2022-09-07T10:59:26.766Z,24.99
2022-09-07T11:02:21.158Z,25.27
2022-09-07T11:05:00.026Z,25.56
2022-09-07T11:07:47.749Z,25.39
2022-09-07T11:10:26.076Z,25.25
2022-09-07T11:12:58.503Z,24.94
2022-09-07T11:15:28.987Z,24.69
2022-09-07T11:18:01.311Z,24.37
2022-09-07T11:20:30.325Z,24.57
2022-09-07T11:23:07.047Z,24.97
2022-09-07T11:25:40.695Z,25.05
2022-09-07T11:28:20.964Z,24.84
2022-09-07T11:31:01.180Z,24.65
2022-09-07T11:33:33.900Z,24.71
2022-09-07T11:36:11.946Z,24.69
2022-09-07T11:38:47.498Z,24.82
2022-09-07T11:41:19.873Z,24.81
2022-09-07T11:43:50.622Z,25.03
2022-09-07T11:46:43.448Z,25.19
2022-09-07T11:49:19.194Z,25.35
2022-09-07T11:52:05.923Z,25.45
2022-09-07T11:54:38.553Z,25.54
2022-09-07T11:57:13.995Z,25.67
2022-09-07T12:00:13.048Z,25.89
2022-09-07T12:03:19.804Z,26.03
2022-09-07T12:06:19.165Z,25.89
2022-09-07T12:09:10.937Z,25.42
2022-09-07T12:12:10.607Z,25.08
2022-09-07T12:14:54.113Z,25.11
2022-09-07T12:17:47.733Z,25.24
2022-09-07T12:20:21.611Z,25.60
2022-09-07T12:23:04.551Z,26.01
2022-09-07T12:25:33.630Z,25.95
2022-09-07T12:28:25.389Z,26.01
2022-09-07T12:31:02.366Z,26.04
2022-09-07T12:33:33.458Z,26.08
2022-09-07T12:36:01.504Z,26.23
2022-09-07T12:38:30.725Z,26.24
2022-09-07T12:41:03.942Z,25.93
2022-09-07T12:43:33.422Z,25.63
2022-09-07T12:46:01.502Z,25.44
2022-09-07T12:48:52.767Z,25.41
2022-09-07T12:54:52.762Z,25.47
2022-09-07T12:57:58.460Z,25.31
2022-09-07T13:01:00.109Z,25.37
2022-09-07T13:03:52.742Z,25.92
2022-09-07T13:09:28.471Z,26.89
2022-09-07T13:11:57.036Z,26.96
2022-09-07T13:14:38.427Z,27.19
2022-09-07T13:17:27.911Z,27.22
2022-09-07T13:20:05.034Z,27.12
2022-09-07T13:22:35.281Z,27.16
2022-09-07T13:25:25.106Z,27.25
2022-09-07T13:28:03.106Z,27.32
2022-09-07T13:31:04.961Z,27.35
2022-09-07T13:33:34.580Z,27.58
2022-09-07T13:36:06.094Z,27.37
2022-09-07T13:38:36.360Z,27.38
2022-09-07T13:41:12.378Z,27.35
2022-09-07T13:43:39.948Z,27.08
2022-09-07T13:46:18.027Z,27.11
2022-09-07T13:48:50.200Z,27.31
2022-09-07T13:51:39.802Z,27.45
2022-09-07T13:54:42.255Z,27.50
2022-09-07T13:57:31.533Z,27.63
2022-09-07T13:59:59.564Z,27.62
2022-09-07T14:02:33.998Z,27.74
2022-09-07T14:05:01.793Z,27.77
2022-09-07T14:07:30.431Z,27.73
2022-09-07T14:10:17.531Z,27.67
2022-09-07T14:13:08.258Z,27.63
2022-09-07T14:15:43.541Z,27.50
2022-09-07T14:18:19.461Z,27.56
2022-09-07T14:20:49.594Z,27.55
2022-09-07T14:23:23.812Z,27.53
2022-09-07T14:26:17.283Z,27.49
2022-09-07T14:28:46.467Z,27.44
2022-09-07T14:31:15.944Z,27.39
2022-09-07T14:34:00.539Z,27.39
2022-09-07T14:36:46.501Z,27.44
2022-09-07T14:39:17.136Z,27.45
2022-09-07T14:41:44.592Z,27.30
2022-09-07T14:44:31.848Z,27.06
2022-09-07T14:47:10.606Z,26.87
2022-09-07T14:49:37.547Z,26.87
2022-09-07T14:52:04.318Z,26.65
2022-09-07T14:54:34.060Z,26.75
2022-09-07T14:57:27.551Z,26.84
2022-09-07T14:59:56.778Z,26.85
2022-09-07T15:02:35.672Z,26.69
2022-09-07T15:05:14.585Z,26.42
2022-09-07T15:07:46.045Z,26.44
2022-09-07T15:10:35.133Z,26.32
2022-09-07T15:13:03.994Z,26.06
2022-09-07T15:15:32.106Z,26.01
2022-09-07T15:18:08.259Z,25.81
2022-09-07T15:20:40.970Z,25.74
2022-09-07T15:23:15.738Z,25.71
2022-09-07T15:25:48.162Z,25.86
2022-09-07T15:34:09.971Z,26.09
2022-09-07T15:36:37.885Z,26.06
2022-09-07T15:39:05.049Z,26.08
2022-09-07T15:41:32.341Z,26.19
2022-09-07T15:44:00.078Z,26.30
2022-09-07T15:46:27.710Z,26.34
2022-09-07T15:48:55.682Z,26.39
2022-09-07T15:54:13.115Z,26.18
2022-09-07T15:56:41.790Z,25.92
2022-09-07T15:59:10.496Z,25.95
2022-09-07T16:01:54.715Z,25.82
2022-09-07T16:04:24.032Z,25.77
2022-09-07T16:06:50.902Z,25.57
2022-09-07T16:09:17.489Z,25.49
2022-09-07T16:11:44.326Z,25.59
2022-09-07T16:14:12.322Z,25.50
2022-09-07T16:19:35.012Z,25.29
2022-09-07T16:22:03.058Z,25.23
2022-09-07T16:24:29.489Z,25.20
2022-09-07T16:26:56.581Z,25.12
2022-09-07T16:29:23.043Z,25.05
2022-09-07T16:34:36.074Z,24.87
2022-09-07T16:37:03.214Z,24.73
2022-09-07T16:39:33.020Z,24.63
2022-09-07T16:42:00.417Z,24.59
2022-09-07T16:44:27.963Z,24.53
2022-09-07T16:46:55.438Z,24.53
2022-09-07T16:49:22.506Z,24.44
2022-09-07T16:51:49.889Z,24.36
2022-09-07T16:54:16.980Z,24.20
2022-09-07T16:56:43.362Z,24.11
2022-09-07T16:59:15.871Z,24.10
2022-09-07T17:01:43.362Z,24.01
2022-09-07T17:04:11.447Z,24.03
2022-09-07T17:06:39.422Z,23.81
2022-09-07T17:09:07.158Z,23.80
2022-09-07T17:11:36.202Z,23.65
2022-09-07T17:14:06.957Z,23.62
2022-09-07T17:16:37.001Z,23.61
2022-09-07T17:21:53.559Z,23.38
2022-09-07T17:24:21.250Z,23.26
2022-09-07T17:26:47.869Z,23.25
2022-09-07T17:29:14.812Z,23.25
2022-09-07T17:34:31.971Z,22.94
2022-09-07T17:37:01.204Z,22.94
2022-09-07T17:39:28.549Z,22.90
2022-09-07T17:41:56.617Z,22.78
2022-09-07T17:44:23.484Z,22.70
2022-09-07T17:47:00.660Z,22.58
2022-09-07T17:49:29.323Z,22.51
2022-09-07T17:51:58.663Z,22.45
2022-09-07T17:54:26.616Z,22.39
2022-09-07T17:56:53.035Z,22.35
2022-09-07T18:02:05.971Z,22.17
2022-09-07T18:04:32.619Z,22.12
2022-09-07T18:07:07.023Z,22.08
2022-09-07T18:09:33.518Z,22.02
2022-09-07T18:12:00.544Z,21.97
2022-09-07T18:14:30.025Z,21.96
2022-09-07T18:16:59.389Z,21.91
2022-09-07T18:19:26.619Z,21.84
2022-09-07T18:21:53.230Z,21.78
2022-09-07T18:24:22.928Z,21.74
2022-09-07T18:26:52.266Z,21.67
2022-09-07T18:29:31.159Z,21.64
2022-09-07T18:32:04.437Z,21.55
2022-09-07T18:34:32.222Z,21.47
2022-09-07T18:37:04.632Z,21.42
2022-09-07T18:39:32.242Z,21.37
2022-09-07T18:42:23.273Z,21.33
2022-09-07T18:47:36.262Z,21.24
2022-09-07T18:50:07.146Z,21.21
2022-09-07T18:55:20.993Z,21.09
2022-09-07T18:57:47.448Z,21.03
2022-09-07T19:00:14.231Z,21.01
2022-09-07T19:02:41.196Z,20.91
2022-09-07T19:07:55.839Z,20.84
2022-09-07T19:10:22.982Z,20.79
2022-09-07T19:12:49.368Z,20.75
2022-09-07T19:15:15.850Z,20.69
2022-09-07T19:17:42.268Z,20.65
2022-09-07T19:20:09.631Z,20.59
2022-09-07T19:22:36.061Z,20.53
2022-09-07T19:25:03.894Z,20.50
2022-09-07T19:27:32.899Z,20.48
2022-09-07T19:30:03.000Z,20.45
2022-09-07T19:32:31.252Z,20.45
2022-09-07T19:35:00.586Z,20.44
2022-09-07T19:37:31.985Z,20.39
2022-09-07T19:39:59.878Z,20.36
2022-09-07T19:42:28.534Z,20.35
2022-09-07T19:44:55.737Z,20.34
2022-09-07T19:47:23.115Z,20.32
2022-09-07T19:49:49.605Z,20.34
2022-09-07T19:52:16.499Z,20.24
2022-09-07T19:54:43.784Z,20.16
2022-09-07T19:57:10.273Z,20.07
2022-09-07T19:59:36.675Z,20.01
2022-09-07T20:02:04.290Z,19.99
2022-09-07T20:04:30.940Z,19.92
2022-09-07T20:06:58.013Z,19.88
2022-09-07T20:09:27.598Z,19.90
2022-09-07T20:11:57.161Z,19.83
2022-09-07T20:14:23.809Z,19.82
2022-09-07T20:16:51.169Z,19.72
2022-09-07T20:19:18.230Z,19.66
2022-09-07T20:21:44.662Z,19.65
2022-09-07T20:24:12.162Z,19.62
2022-09-07T20:26:38.643Z,19.67
2022-09-07T20:29:26.059Z,19.69
2022-09-07T20:31:53.446Z,19.70
2022-09-07T20:34:20.129Z,19.69
2022-09-07T20:36:49.374Z,19.68
2022-09-07T20:39:16.491Z,19.51
2022-09-07T20:41:43.051Z,19.39
2022-09-07T20:44:09.486Z,19.37
2022-09-07T20:46:36.604Z,19.39
2022-09-07T20:49:04.755Z,19.40
2022-09-07T20:51:32.031Z,19.38
2022-09-07T20:53:58.825Z,19.38
2022-09-07T20:56:28.616Z,19.30
2022-09-07T20:59:05.465Z,19.21
2022-09-07T21:01:36.741Z,19.18
2022-09-07T21:04:04.103Z,19.16
2022-09-07T21:06:32.905Z,19.10
2022-09-07T21:09:06.522Z,19.08
2022-09-07T21:11:35.269Z,18.99
2022-09-07T21:14:07.454Z,18.97
2022-09-07T21:16:35.634Z,18.91
2022-09-07T21:19:05.642Z,18.81
2022-09-07T21:21:39.157Z,18.80
2022-09-07T21:24:12.828Z,18.74
2022-09-07T21:26:39.400Z,18.70
2022-09-07T21:29:05.896Z,18.63
2022-09-07T21:31:33.767Z,18.57
2022-09-07T21:34:02.346Z,18.52
2022-09-07T21:36:29.444Z,18.49
2022-09-07T21:38:56.001Z,18.45
2022-09-07T21:41:25.013Z,18.46
2022-09-07T21:44:03.006Z,18.40
2022-09-07T21:46:32.217Z,18.35
2022-09-07T21:49:00.213Z,18.34
2022-09-07T21:51:27.877Z,18.41
2022-09-07T21:53:57.351Z,18.32
2022-09-07T21:56:24.997Z,18.28
2022-09-07T21:58:58.806Z,18.25
2022-09-07T22:01:28.084Z,18.17
2022-09-07T22:04:00.447Z,18.08
2022-09-07T22:06:31.417Z,18.04
2022-09-07T22:08:58.756Z,17.99
2022-09-07T22:11:30.542Z,17.98
2022-09-07T22:14:02.901Z,17.98
2022-09-07T22:16:31.161Z,18.04
2022-09-07T22:18:58.840Z,17.96
2022-09-07T22:21:28.683Z,17.99
2022-09-07T22:24:00.156Z,18.04
2022-09-07T22:26:32.336Z,18.00
2022-09-07T22:29:00.359Z,17.96
2022-09-07T22:31:30.286Z,17.91
2022-09-07T22:34:00.263Z,17.88
2022-09-07T22:36:36.320Z,17.88
2022-09-07T22:39:10.181Z,17.92
2022-09-07T22:41:38.425Z,17.92
2022-09-07T22:44:06.449Z,18.04
2022-09-07T22:46:36.923Z,17.86
2022-09-07T22:49:05.402Z,17.90
2022-09-07T22:51:32.961Z,17.85
2022-09-07T22:54:03.605Z,17.83
2022-09-07T22:56:32.122Z,17.86
2022-09-07T22:59:03.574Z,17.89
2022-09-07T23:01:32.177Z,17.93
2022-09-07T23:04:00.649Z,17.85
2022-09-07T23:06:29.676Z,17.83
2022-09-07T23:09:03.044Z,17.77
2022-09-07T23:11:29.866Z,17.68
2022-09-07T23:14:00.385Z,17.64
2022-09-07T23:16:28.840Z,17.56
2022-09-07T23:18:58.844Z,17.52
2022-09-07T23:21:27.195Z,17.57
2022-09-07T23:23:56.956Z,17.63
2022-09-07T23:26:26.062Z,17.55
2022-09-07T23:28:57.768Z,17.59
2022-09-07T23:31:28.798Z,17.53
2022-09-07T23:33:58.067Z,17.46
2022-09-07T23:36:26.174Z,17.41
2022-09-07T23:39:13.159Z,17.34
2022-09-07T23:41:39.603Z,17.23
2022-09-07T23:44:06.018Z,17.16
2022-09-07T23:46:33.148Z,17.11
2022-09-07T23:49:00.251Z,16.95
2022-09-07T23:51:27.380Z,16.85
2022-09-07T23:53:54.017Z,16.69
2022-09-07T23:56:24.688Z,16.64
2022-09-07T23:58:51.453Z,16.52
